createdAt,value
2022-12-22T00:02:40.169Z,9.10
2022-12-22T00:05:38.348Z,9.00
2022-12-22T00:08:25.300Z,9.00
2022-12-22T00:11:11.974Z,8.90
2022-12-22T00:14:00.602Z,9.00
2022-12-22T00:16:55.434Z,9.00
2022-12-22T00:19:41.335Z,8.90
2022-12-22T00:22:40.091Z,8.90
2022-12-22T00:25:28.091Z,8.90
2022-12-22T00:28:14.009Z,9.00
2022-12-22T00:31:00.582Z,8.90
2022-12-22T00:33:46.809Z,9.00
2022-12-22T00:36:33.514Z,9.00
2022-12-22T00:39:19.327Z,9.00
2022-12-22T00:42:05.252Z,9.00
2022-12-22T00:44:51.037Z,9.00
2022-12-22T00:47:47.769Z,9.00
2022-12-22T00:50:34.866Z,9.00
2022-12-22T00:53:21.938Z,9.10
2022-12-22T00:56:08.196Z,9.10
2022-12-22T00:58:55.220Z,9.10
2022-12-22T01:01:41.472Z,9.10
2022-12-22T01:04:30.353Z,9.10
2022-12-22T01:07:16.708Z,9.10
2022-12-22T01:10:08.521Z,9.10
2022-12-22T01:12:56.562Z,9.10
2022-12-22T01:15:42.879Z,9.10
2022-12-22T01:18:29.243Z,9.10
2022-12-22T01:21:15.174Z,9.10
2022-12-22T01:24:01.908Z,9.10
2022-12-22T01:26:48.191Z,9.00
2022-12-22T01:29:33.984Z,9.00
2022-12-22T01:32:19.682Z,9.00
2022-12-22T01:35:05.605Z,9.00
2022-12-22T01:37:51.676Z,9.10
2022-12-22T01:40:41.889Z,9.00
2022-12-22T01:43:46.861Z,9.00
2022-12-22T01:46:47.363Z,9.00
2022-12-22T01:49:36.235Z,9.10
2022-12-22T01:52:23.009Z,9.10
2022-12-22T01:55:09.212Z,9.10
2022-12-22T01:57:55.921Z,9.10
2022-12-22T02:00:41.785Z,9.20
2022-12-22T02:03:36.202Z,9.20
2022-12-22T02:06:56.205Z,9.20
2022-12-22T02:09:59.344Z,9.30
2022-12-22T02:13:00.491Z,9.30
2022-12-22T02:16:07.076Z,9.40
2022-12-22T02:19:35.356Z,9.40
2022-12-22T02:23:08.831Z,9.40
2022-12-22T02:26:06.522Z,9.30
2022-12-22T02:28:53.575Z,9.30
2022-12-22T02:31:39.273Z,9.30
2022-12-22T02:34:32.196Z,9.30
2022-12-22T02:37:56.066Z,9.20
2022-12-22T02:40:49.152Z,9.30
2022-12-22T02:44:03.041Z,9.30
2022-12-22T02:47:21.740Z,9.20
2022-12-22T02:50:15.052Z,9.20
2022-12-22T02:53:02.645Z,9.20
2022-12-22T02:58:45.705Z,9.20
2022-12-22T03:01:30.863Z,9.20
2022-12-22T03:04:16.293Z,9.20
2022-12-22T03:07:01.926Z,9.20
2022-12-22T03:09:47.106Z,9.20
2022-12-22T03:12:32.351Z,9.20
2022-12-22T03:15:17.560Z,9.20
2022-12-22T03:18:02.545Z,9.20
2022-12-22T03:26:05.671Z,9.20
2022-12-22T03:28:32.288Z,9.30
2022-12-22T03:31:04.663Z,9.30
2022-12-22T03:33:31.994Z,9.30
2022-12-22T03:35:59.752Z,9.40
2022-12-22T03:38:26.706Z,9.40
2022-12-22T03:40:54.239Z,9.40
2022-12-22T03:43:40.344Z,9.40
2022-12-22T03:46:17.630Z,9.40
2022-12-22T03:49:05.479Z,9.40
2022-12-22T03:51:34.308Z,9.40
2022-12-22T03:54:01.610Z,9.40
2022-12-22T03:56:29.142Z,9.30
2022-12-22T03:58:56.429Z,9.30
2022-12-22T04:01:24.628Z,9.30
2022-12-22T04:03:52.004Z,9.30
2022-12-22T04:06:19.371Z,9.30
2022-12-22T04:08:46.734Z,9.30
2022-12-22T04:11:33.575Z,9.30
2022-12-22T04:14:01.890Z,9.30
2022-12-22T04:16:29.639Z,9.20
2022-12-22T04:18:57.304Z,9.20
2022-12-22T04:21:25.088Z,9.20
2022-12-22T04:23:52.597Z,9.20
2022-12-22T04:26:22.189Z,9.20
2022-12-22T04:28:50.787Z,9.20
2022-12-22T04:31:18.392Z,9.20
2022-12-22T04:33:45.857Z,9.20
2022-12-22T04:36:13.752Z,9.20
2022-12-22T04:38:41.271Z,9.20
2022-12-22T04:41:08.954Z,9.20
2022-12-22T04:43:36.803Z,9.10
2022-12-22T04:46:04.516Z,9.20
2022-12-22T04:48:32.697Z,9.20
2022-12-22T04:51:00.784Z,9.20
2022-12-22T04:53:30.156Z,9.10
2022-12-22T04:56:06.189Z,9.20
2022-12-22T04:58:34.321Z,9.20
2022-12-22T05:01:13.734Z,9.20
2022-12-22T05:03:41.276Z,9.20
2022-12-22T05:06:09.216Z,9.20
2022-12-22T05:08:36.769Z,9.30
2022-12-22T05:11:04.244Z,9.20
2022-12-22T05:13:32.133Z,9.20
2022-12-22T05:16:11.112Z,9.20
2022-12-22T05:18:39.682Z,9.20
2022-12-22T05:21:12.692Z,9.30
2022-12-22T05:23:40.313Z,9.30
2022-12-22T05:26:08.292Z,9.30
2022-12-22T05:28:35.561Z,9.30
2022-12-22T05:31:07.945Z,9.30
2022-12-22T05:33:36.025Z,9.30
2022-12-22T05:36:03.877Z,9.30
2022-12-22T05:38:31.557Z,9.40
2022-12-22T05:41:03.811Z,9.30
2022-12-22T05:43:32.734Z,9.30
2022-12-22T05:46:05.236Z,9.30
2022-12-22T05:48:38.068Z,9.40
2022-12-22T05:51:09.782Z,9.30
2022-12-22T05:53:38.093Z,9.40
2022-12-22T05:56:05.825Z,9.40
2022-12-22T05:58:33.933Z,9.40
2022-12-22T06:01:01.761Z,9.40
2022-12-22T06:03:30.285Z,9.40
2022-12-22T06:05:58.765Z,9.40
2022-12-22T06:08:27.265Z,9.50
2022-12-22T06:10:56.042Z,9.50
2022-12-22T06:13:23.934Z,9.50
2022-12-22T06:15:54.456Z,9.50
2022-12-22T06:18:21.832Z,9.50
2022-12-22T06:20:51.845Z,9.50
2022-12-22T06:23:19.707Z,9.40
2022-12-22T06:25:58.144Z,9.40
2022-12-22T06:28:26.194Z,9.50
2022-12-22T06:30:54.368Z,9.50
2022-12-22T06:33:21.738Z,9.50
2022-12-22T06:35:53.862Z,9.40
2022-12-22T06:38:25.420Z,9.40
2022-12-22T06:40:52.695Z,9.50
2022-12-22T06:43:19.931Z,9.40
2022-12-22T06:45:47.218Z,9.50
2022-12-22T06:48:14.609Z,9.50
2022-12-22T06:50:42.036Z,9.50
2022-12-22T06:53:10.107Z,9.50
2022-12-22T06:55:37.893Z,9.50
2022-12-22T06:58:05.730Z,9.50
2022-12-22T07:00:33.518Z,9.50
2022-12-22T07:03:01.132Z,9.30
2022-12-22T07:05:30.444Z,9.20
2022-12-22T07:08:02.542Z,9.20
2022-12-22T07:10:51.792Z,9.10
2022-12-22T07:13:21.926Z,9.10
2022-12-22T07:15:55.563Z,9.10
2022-12-22T07:18:28.988Z,9.10
2022-12-22T07:20:56.241Z,9.10
2022-12-22T07:23:23.531Z,9.10
2022-12-22T07:25:50.850Z,9.20
2022-12-22T07:28:21.018Z,9.20
2022-12-22T07:30:52.647Z,9.30
2022-12-22T07:33:19.985Z,9.30
2022-12-22T07:35:47.302Z,9.30
2022-12-22T07:38:14.554Z,9.40
2022-12-22T07:45:57.358Z,9.40
2022-12-22T07:48:43.250Z,9.50
2022-12-22T07:51:10.527Z,9.60
2022-12-22T07:53:40.109Z,9.70
2022-12-22T07:56:07.630Z,9.70
2022-12-22T07:58:34.986Z,9.80
2022-12-22T08:01:02.387Z,9.90
2022-12-22T08:03:29.842Z,9.90
2022-12-22T08:05:57.114Z,9.90
2022-12-22T08:13:09.878Z,9.90
2022-12-22T08:15:38.078Z,9.90
2022-12-22T08:18:05.614Z,10.00
2022-12-22T08:20:33.075Z,9.90
2022-12-22T08:23:00.287Z,10.00
2022-12-22T08:25:27.637Z,10.10
2022-12-22T08:27:56.317Z,10.10
2022-12-22T08:30:23.804Z,10.10
2022-12-22T08:32:51.737Z,10.20
2022-12-22T08:35:19.201Z,10.20
2022-12-22T08:37:47.824Z,10.20
2022-12-22T08:40:21.196Z,10.20
2022-12-22T08:42:50.231Z,10.20
2022-12-22T08:45:17.553Z,10.30
2022-12-22T08:47:44.849Z,10.40
2022-12-22T08:50:12.314Z,10.40
2022-12-22T08:52:39.689Z,10.40
2022-12-22T08:55:07.958Z,10.40
2022-12-22T08:57:35.347Z,10.40
2022-12-22T09:00:03.719Z,10.40
2022-12-22T09:02:31.795Z,10.40
2022-12-22T09:04:59.450Z,10.40
2022-12-22T09:07:26.877Z,10.40
2022-12-22T09:09:54.819Z,10.30
2022-12-22T09:12:22.069Z,10.40
2022-12-22T09:14:49.365Z,10.40
2022-12-22T09:17:16.616Z,10.50
2022-12-22T09:19:43.911Z,10.50
2022-12-22T09:22:11.480Z,10.40
2022-12-22T09:24:39.025Z,10.50
2022-12-22T09:27:09.019Z,10.50
2022-12-22T09:29:37.300Z,10.50
2022-12-22T09:32:05.228Z,10.70
2022-12-22T09:34:32.602Z,10.90
2022-12-22T09:36:59.932Z,10.90
2022-12-22T09:39:29.447Z,10.90
2022-12-22T09:41:58.089Z,11.00
2022-12-22T09:44:31.962Z,10.90
2022-12-22T09:47:17.819Z,10.70
2022-12-22T09:49:45.380Z,10.50
2022-12-22T09:52:24.537Z,10.50
2022-12-22T09:54:52.085Z,10.50
2022-12-22T09:57:20.086Z,10.50
2022-12-22T09:59:48.027Z,10.50
2022-12-22T10:02:27.067Z,10.40
2022-12-22T10:05:30.787Z,10.40
2022-12-22T10:08:01.861Z,10.40
2022-12-22T10:10:31.231Z,10.30
2022-12-22T10:13:03.848Z,10.40
2022-12-22T10:15:36.721Z,10.60
2022-12-22T10:18:22.753Z,10.90
2022-12-22T10:21:10.108Z,11.70
2022-12-22T10:23:48.580Z,13.10
2022-12-22T10:26:28.095Z,14.80
2022-12-22T10:29:16.773Z,15.50
2022-12-22T10:32:11.750Z,16.00
2022-12-22T10:35:02.559Z,15.80
2022-12-22T10:37:33.234Z,15.10
2022-12-22T10:40:14.410Z,15.10
2022-12-22T10:42:55.789Z,15.20
2022-12-22T10:45:26.508Z,15.20
2022-12-22T10:47:57.308Z,15.30
2022-12-22T10:50:24.668Z,15.50
2022-12-22T10:52:55.014Z,16.10
2022-12-22T10:55:29.976Z,15.90
2022-12-22T10:58:21.649Z,14.60
2022-12-22T11:01:02.926Z,12.80
2022-12-22T11:03:31.893Z,11.90
2022-12-22T11:06:00.952Z,11.40
2022-12-22T11:08:30.267Z,11.20
2022-12-22T11:11:06.598Z,11.20
2022-12-22T11:13:56.019Z,11.00
2022-12-22T11:16:26.374Z,11.00
2022-12-22T11:19:03.677Z,10.80
2022-12-22T11:21:57.613Z,10.60
2022-12-22T11:24:50.699Z,10.30
2022-12-22T11:27:52.056Z,10.20
2022-12-22T11:30:24.018Z,10.00
2022-12-22T11:33:25.877Z,10.00
2022-12-22T11:36:04.937Z,9.80
2022-12-22T11:39:12.707Z,9.80
2022-12-22T11:42:21.424Z,9.90
2022-12-22T11:45:34.244Z,9.90
2022-12-22T11:48:22.323Z,9.80
2022-12-22T11:51:00.806Z,10.10
2022-12-22T11:54:14.782Z,10.20
2022-12-22T11:56:47.381Z,10.50
2022-12-22T11:59:36.312Z,10.70
2022-12-22T12:02:28.336Z,10.60
2022-12-22T12:05:38.925Z,10.50
2022-12-22T12:08:21.291Z,10.40
2022-12-22T12:10:54.876Z,10.30
2022-12-22T12:13:37.923Z,10.20
2022-12-22T12:16:29.425Z,10.10
2022-12-22T12:19:27.046Z,10.00
2022-12-22T12:22:03.838Z,10.00
2022-12-22T12:24:58.754Z,9.90
2022-12-22T12:27:28.720Z,9.70
2022-12-22T12:30:37.086Z,9.70
2022-12-22T12:32:58.239Z,9.60
2022-12-22T12:35:35.978Z,9.60
2022-12-22T12:38:20.618Z,9.50
2022-12-22T12:41:19.752Z,9.40
2022-12-22T12:43:49.798Z,9.40
2022-12-22T12:46:42.139Z,9.50
2022-12-22T12:49:35.417Z,9.70
2022-12-22T12:52:04.173Z,9.90
2022-12-22T12:54:47.010Z,10.10
2022-12-22T12:57:45.557Z,10.10
2022-12-22T13:00:31.449Z,9.90
2022-12-22T13:04:01.018Z,9.80
2022-12-22T13:06:51.257Z,9.60
2022-12-22T13:12:39.218Z,9.20
2022-12-22T13:15:36.897Z,9.10
2022-12-22T13:18:29.352Z,8.90
2022-12-22T13:21:50.761Z,8.90
2022-12-22T13:24:23.701Z,9.00
2022-12-22T13:26:45.541Z,9.20
2022-12-22T13:29:39.607Z,9.20
2022-12-22T13:32:22.357Z,9.00
2022-12-22T13:35:29.774Z,8.90
2022-12-22T13:37:48.595Z,9.10
2022-12-22T13:40:27.428Z,9.20
2022-12-22T13:43:04.846Z,9.20
2022-12-22T13:45:46.617Z,9.30
2022-12-22T13:48:15.625Z,9.50
2022-12-22T13:50:51.138Z,9.70
2022-12-22T13:56:42.862Z,9.80
2022-12-22T13:59:34.545Z,9.90
2022-12-22T14:02:16.425Z,9.90
2022-12-22T14:05:03.656Z,10.00
2022-12-22T14:07:31.482Z,10.00
2022-12-22T14:09:58.788Z,10.00
2022-12-22T14:12:42.017Z,10.00
2022-12-22T14:15:17.861Z,10.00
2022-12-22T14:17:52.155Z,9.90
2022-12-22T14:20:27.060Z,9.90
2022-12-22T14:23:17.572Z,9.90
2022-12-22T14:25:46.702Z,9.90
2022-12-22T14:28:24.228Z,10.00
2022-12-22T14:30:55.407Z,9.90
2022-12-22T14:33:29.873Z,9.90
2022-12-22T14:36:06.675Z,9.80
2022-12-22T14:38:44.248Z,9.80
2022-12-22T14:41:46.849Z,9.70
2022-12-22T14:44:15.789Z,9.70
2022-12-22T14:46:44.610Z,9.60
2022-12-22T14:49:19.718Z,9.60
2022-12-22T14:52:01.279Z,9.60
2022-12-22T14:54:29.177Z,9.50
2022-12-22T14:57:15.547Z,9.50
2022-12-22T15:00:09.175Z,9.50
2022-12-22T15:02:40.578Z,9.40
2022-12-22T15:05:25.126Z,9.40
2022-12-22T15:08:05.397Z,9.40
2022-12-22T15:10:39.667Z,9.30
2022-12-22T15:13:13.224Z,9.40
2022-12-22T15:15:40.590Z,9.40
2022-12-22T15:18:15.435Z,9.40
2022-12-22T15:20:42.869Z,9.40
2022-12-22T15:23:16.628Z,9.30
2022-12-22T15:25:44.403Z,9.30
2022-12-22T15:28:11.712Z,9.30
2022-12-22T15:30:39.043Z,9.30
2022-12-22T15:33:16.164Z,9.30
2022-12-22T15:35:44.113Z,9.30
2022-12-22T15:38:17.715Z,9.20
2022-12-22T15:40:45.196Z,9.20
2022-12-22T15:43:36.730Z,9.20
2022-12-22T15:46:03.746Z,9.10
2022-12-22T15:48:39.469Z,9.10
2022-12-22T15:51:13.749Z,9.10
2022-12-22T15:53:41.075Z,9.10
2022-12-22T15:56:17.702Z,9.00
2022-12-22T15:58:45.549Z,9.00
2022-12-22T16:01:13.225Z,9.00
2022-12-22T16:03:40.582Z,9.00
2022-12-22T16:06:13.944Z,8.90
2022-12-22T16:08:45.259Z,8.90
2022-12-22T16:11:12.545Z,8.90
2022-12-22T16:13:39.882Z,8.90
2022-12-22T16:16:08.502Z,8.90
2022-12-22T16:18:35.926Z,8.80
2022-12-22T16:21:08.043Z,8.90
2022-12-22T16:23:36.820Z,8.90
2022-12-22T16:26:05.072Z,8.90
2022-12-22T16:28:33.179Z,8.90
2022-12-22T16:31:01.313Z,8.90
2022-12-22T16:33:28.994Z,8.90
2022-12-22T16:35:56.318Z,9.00
2022-12-22T16:38:23.644Z,9.00
2022-12-22T16:40:52.880Z,8.90
2022-12-22T16:46:33.371Z,9.00
2022-12-22T16:49:01.718Z,9.00
2022-12-22T16:51:33.890Z,9.00
2022-12-22T16:54:01.875Z,9.00
2022-12-22T16:56:31.027Z,9.00
2022-12-22T16:58:58.724Z,9.10
2022-12-22T17:01:39.899Z,9.10
2022-12-22T17:04:19.010Z,9.10
2022-12-22T17:06:48.636Z,9.10
2022-12-22T17:09:22.379Z,9.10
2022-12-22T17:11:49.952Z,9.20
2022-12-22T17:14:39.015Z,9.20
2022-12-22T17:17:06.782Z,9.30
2022-12-22T17:19:34.092Z,9.30
2022-12-22T17:22:01.617Z,9.30
2022-12-22T17:24:29.166Z,9.40
2022-12-22T17:27:05.692Z,9.40
2022-12-22T17:29:35.108Z,9.40
2022-12-22T17:32:02.419Z,9.40
2022-12-22T17:34:29.661Z,9.50
2022-12-22T17:36:58.871Z,9.50
2022-12-22T17:39:26.345Z,9.60
2022-12-22T17:41:57.038Z,9.60
2022-12-22T17:44:26.612Z,9.60
2022-12-22T17:46:54.128Z,9.60
2022-12-22T17:49:22.761Z,9.70
2022-12-22T17:51:50.482Z,9.60
2022-12-22T17:54:26.005Z,9.60
2022-12-22T17:57:03.786Z,9.70
2022-12-22T17:59:31.086Z,9.70
2022-12-22T18:02:00.171Z,9.70
2022-12-22T18:04:27.566Z,9.70
2022-12-22T18:06:55.904Z,9.80
2022-12-22T18:09:26.006Z,9.80
2022-12-22T18:11:53.729Z,9.70
2022-12-22T18:14:22.162Z,9.80
2022-12-22T18:16:49.834Z,9.80
2022-12-22T18:19:17.319Z,9.80
2022-12-22T18:21:45.051Z,9.80
2022-12-22T18:24:17.323Z,9.80
2022-12-22T18:26:46.680Z,9.80
2022-12-22T18:29:17.431Z,9.80
2022-12-22T18:31:45.177Z,9.90
2022-12-22T18:34:12.900Z,9.90
2022-12-22T18:36:42.448Z,9.90
2022-12-22T18:39:18.827Z,9.90
2022-12-22T18:41:46.998Z,10.00
2022-12-22T18:44:18.867Z,10.00
2022-12-22T18:46:46.617Z,10.00
2022-12-22T18:49:14.712Z,10.00
2022-12-22T18:51:45.676Z,10.00
2022-12-22T18:54:29.280Z,10.00
2022-12-22T18:56:56.586Z,10.10
2022-12-22T18:59:27.866Z,10.10
2022-12-22T19:02:28.839Z,10.20
2022-12-22T19:04:57.015Z,10.20
2022-12-22T19:07:26.525Z,10.20
2022-12-22T19:09:53.894Z,10.30
2022-12-22T19:12:23.100Z,10.30
2022-12-22T19:15:02.940Z,10.30
2022-12-22T19:17:30.254Z,10.40
2022-12-22T19:19:58.038Z,10.40
2022-12-22T19:22:25.517Z,10.40
2022-12-22T19:24:57.337Z,10.40
2022-12-22T19:27:26.720Z,10.40
2022-12-22T19:30:03.155Z,10.40
2022-12-22T19:32:38.088Z,10.40
2022-12-22T19:35:13.161Z,10.40
2022-12-22T19:37:40.573Z,10.40
2022-12-22T19:40:08.583Z,10.40
2022-12-22T19:42:36.226Z,10.40
2022-12-22T19:45:10.316Z,10.40
2022-12-22T19:47:38.874Z,10.40
2022-12-22T19:50:17.630Z,10.50
2022-12-22T19:52:45.133Z,10.50
2022-12-22T19:55:12.692Z,10.50
2022-12-22T19:57:41.560Z,10.50
2022-12-22T20:00:24.330Z,10.50
2022-12-22T20:02:57.374Z,10.50
2022-12-22T20:05:24.718Z,10.60
2022-12-22T20:07:55.035Z,10.60
2022-12-22T20:10:25.188Z,10.60
2022-12-22T20:12:56.261Z,10.60
2022-12-22T20:15:31.497Z,10.60
2022-12-22T20:17:59.620Z,10.60
2022-12-22T20:20:33.196Z,10.60
2022-12-22T20:23:15.699Z,10.60
2022-12-22T20:25:48.940Z,10.60
2022-12-22T20:28:20.752Z,10.60
2022-12-22T20:30:48.787Z,10.60
2022-12-22T20:33:18.184Z,10.60
2022-12-22T20:35:47.004Z,10.50
2022-12-22T20:38:21.040Z,10.60
2022-12-22T20:40:49.689Z,10.50
2022-12-22T20:43:19.972Z,10.50
2022-12-22T20:45:50.743Z,10.50
2022-12-22T20:48:23.168Z,10.50
2022-12-22T20:50:50.749Z,10.60
2022-12-22T20:53:19.987Z,10.50
2022-12-22T20:55:48.085Z,10.50
2022-12-22T20:58:22.561Z,10.50
2022-12-22T21:00:55.727Z,10.50
2022-12-22T21:03:23.779Z,10.50
2022-12-22T21:05:51.934Z,10.50
2022-12-22T21:08:22.384Z,10.50
2022-12-22T21:10:51.138Z,10.60
2022-12-22T21:13:19.449Z,10.50
2022-12-22T21:15:49.983Z,10.50
2022-12-22T21:18:23.697Z,10.50
2022-12-22T21:20:51.525Z,10.50
2022-12-22T21:23:18.872Z,10.50
2022-12-22T21:25:51.344Z,10.40
2022-12-22T21:28:33.278Z,10.50
2022-12-22T21:31:00.831Z,10.50
2022-12-22T21:33:28.741Z,10.40
2022-12-22T21:35:58.216Z,10.40
2022-12-22T21:38:28.722Z,10.50
2022-12-22T21:40:56.053Z,10.50
2022-12-22T21:43:23.380Z,10.40
2022-12-22T21:45:51.719Z,10.40
2022-12-22T21:48:20.710Z,10.40
2022-12-22T21:50:50.293Z,10.40
2022-12-22T21:53:22.468Z,10.40
2022-12-22T21:55:50.295Z,10.30
2022-12-22T21:58:17.663Z,10.30
2022-12-22T22:00:48.794Z,10.40
2022-12-22T22:03:16.395Z,10.40
2022-12-22T22:05:43.741Z,10.30
2022-12-22T22:08:12.343Z,10.30
2022-12-22T22:10:43.919Z,10.20
2022-12-22T22:13:15.178Z,10.20
2022-12-22T22:15:42.923Z,10.10
2022-12-22T22:18:17.982Z,10.00
2022-12-22T22:20:46.882Z,9.90
2022-12-22T22:23:14.986Z,9.90
2022-12-22T22:25:42.341Z,9.90
2022-12-22T22:28:11.589Z,9.80
2022-12-22T22:30:41.886Z,9.80
2022-12-22T22:33:10.725Z,9.80
2022-12-22T22:35:40.492Z,9.70
2022-12-22T22:38:12.447Z,9.70
2022-12-22T22:40:42.209Z,9.70
2022-12-22T22:43:09.668Z,9.70
2022-12-22T22:45:41.733Z,9.80
2022-12-22T22:48:19.104Z,9.70
2022-12-22T22:50:46.551Z,9.70
2022-12-22T22:53:14.482Z,9.80
2022-12-22T22:55:41.809Z,9.70
2022-12-22T22:58:11.394Z,9.60
2022-12-22T23:00:39.598Z,9.60
2022-12-22T23:03:07.067Z,9.60
2022-12-22T23:05:34.417Z,9.70
2022-12-22T23:08:01.701Z,9.70
2022-12-22T23:10:29.062Z,9.60
2022-12-22T23:12:56.433Z,9.60
2022-12-22T23:15:23.716Z,9.60
2022-12-22T23:17:52.101Z,9.60
2022-12-22T23:20:19.703Z,9.60
2022-12-22T23:22:47.342Z,9.80
2022-12-22T23:25:14.651Z,9.80
2022-12-22T23:27:41.941Z,9.90
2022-12-22T23:30:10.040Z,9.90
2022-12-22T23:32:37.360Z,10.00
2022-12-22T23:35:04.997Z,10.00
2022-12-22T23:37:32.244Z,10.10
2022-12-22T23:40:17.679Z,10.10
2022-12-22T23:42:50.493Z,10.10
2022-12-22T23:45:20.540Z,10.10
2022-12-22T23:47:47.824Z,10.20
2022-12-22T23:50:15.146Z,10.20
2022-12-22T23:52:47.301Z,10.20
2022-12-22T23:55:17.098Z,10.20
2022-12-22T23:57:44.641Z,10.20
